Altmar, New York
Current Conditions -  °F | °C
As of 7:54 PM on Tuesday 21 Oct 2014 (Local Time) from KFZY Reporting Station
Light Rain Light Rain  
Wind Chill: 44°   Ceiling: 400
Heat Index: 49°   Visibility: 2mi
Dew Point: 46°   Wind: 13mph
Humidity: 90%   Direction: 10°N
Pressure: 29.98"   Gusts: NA
Location:  43.51°N, 76°W
Report Text: KFZY 212354Z AUTO 01011KT 2SM -RA BR OVC004 09/08 A2998 RMK AO2 RAE12B30 SLP153 P0001 60005 T00940078 10117 20094 51015
Loading
Personal Weather Stations






























Interactive Weather Map
Tropical Storm Tracking
New forecast layout! Learn more

10-Day Weather Forecast

Advertisements
Track Severe Weather on mobile